sensor_id;sensor_type;location;lat;lon;timestamp;P1;durP1;ratioP1;P2;durP2;ratioP2
62151;SDS011;48139;47.474;19.034;2023-02-01T04:42:34;3.83;;;2.30;;
62151;SDS011;48139;47.474;19.034;2023-02-01T04:45:37;2.97;;;1.83;;
62151;SDS011;48139;47.474;19.034;2023-02-01T04:48:40;3.37;;;1.45;;
62151;SDS011;48139;47.474;19.034;2023-02-01T04:51:44;4.30;;;1.80;;
62151;SDS011;48139;47.474;19.034;2023-02-01T04:54:46;3.87;;;1.95;;
62151;SDS011;48139;47.474;19.034;2023-02-01T04:57:49;4.00;;;1.73;;
62151;SDS011;48139;47.474;19.034;2023-02-01T05:00:51;5.65;;;1.75;;
62151;SDS011;48139;47.474;19.034;2023-02-01T05:03:54;4.07;;;2.00;;
62151;SDS011;48139;47.474;19.034;2023-02-01T05:06:57;3.87;;;1.95;;
62151;SDS011;48139;47.474;19.034;2023-02-01T05:10:05;4.22;;;1.77;;
62151;SDS011;48139;47.474;19.034;2023-02-01T05:13:09;4.32;;;1.73;;
62151;SDS011;48139;47.474;19.034;2023-02-01T05:16:31;1.15;;;0.95;;
62151;SDS011;48139;47.474;19.034;2023-02-01T05:19:34;3.30;;;1.67;;
62151;SDS011;48139;47.474;19.034;2023-02-01T05:22:37;4.17;;;1.47;;
62151;SDS011;48139;47.474;19.034;2023-02-01T05:25:39;2.87;;;1.40;;
62151;SDS011;48139;47.474;19.034;2023-02-01T05:28:42;2.87;;;1.50;;
62151;SDS011;48139;47.474;19.034;2023-02-01T05:31:45;2.60;;;1.50;;
62151;SDS011;48139;47.474;19.034;2023-02-01T05:34:48;4.18;;;1.60;;
62151;SDS011;48139;47.474;19.034;2023-02-01T05:37:52;5.28;;;2.58;;
62151;SDS011;48139;47.474;19.034;2023-02-01T05:40:55;5.17;;;1.70;;
62151;SDS011;48139;47.474;19.034;2023-02-01T05:43:57;1.98;;;1.12;;
62151;SDS011;48139;47.474;19.034;2023-02-01T05:47:00;3.20;;;1.50;;
62151;SDS011;48139;47.474;19.034;2023-02-01T05:50:03;6.75;;;1.92;;
62151;SDS011;48139;47.474;19.034;2023-02-01T05:53:06;3.45;;;1.83;;
62151;SDS011;48139;47.474;19.034;2023-02-01T05:56:09;3.53;;;1.63;;
62151;SDS011;48139;47.474;19.034;2023-02-01T05:59:12;2.22;;;1.30;;
62151;SDS011;48139;47.474;19.034;2023-02-01T06:02:15;3.85;;;1.90;;
62151;SDS011;48139;47.474;19.034;2023-02-01T06:05:19;2.95;;;1.70;;
62151;SDS011;48139;47.474;19.034;2023-02-01T06:08:21;3.17;;;1.67;;
62151;SDS011;48139;47.474;19.034;2023-02-01T06:11:29;3.37;;;1.70;;
62151;SDS011;48139;47.474;19.034;2023-02-01T06:14:35;3.58;;;1.70;;
62151;SDS011;48139;47.474;19.034;2023-02-01T06:17:39;2.30;;;1.40;;
62151;SDS011;48139;47.474;19.034;2023-02-01T06:20:43;3.35;;;1.65;;
62151;SDS011;48139;47.474;19.034;2023-02-01T06:23:46;2.65;;;1.65;;
62151;SDS011;48139;47.474;19.034;2023-02-01T06:26:48;4.80;;;2.58;;
62151;SDS011;48139;47.474;19.034;2023-02-01T06:29:51;7.05;;;2.67;;
62151;SDS011;48139;47.474;19.034;2023-02-01T06:32:54;4.22;;;1.98;;
62151;SDS011;48139;47.474;19.034;2023-02-01T06:35:58;2.50;;;1.42;;
62151;SDS011;48139;47.474;19.034;2023-02-01T06:39:01;3.55;;;1.77;;
62151;SDS011;48139;47.474;19.034;2023-02-01T06:42:04;3.62;;;1.80;;
62151;SDS011;48139;47.474;19.034;2023-02-01T06:45:07;3.58;;;1.73;;
62151;SDS011;48139;47.474;19.034;2023-02-01T06:48:10;3.47;;;2.08;;
62151;SDS011;48139;47.474;19.034;2023-02-01T06:51:20;3.28;;;1.60;;
62151;SDS011;48139;47.474;19.034;2023-02-01T06:54:27;5.35;;;1.87;;
62151;SDS011;48139;47.474;19.034;2023-02-01T06:57:30;5.05;;;2.50;;
62151;SDS011;48139;47.474;19.034;2023-02-01T07:00:35;4.20;;;1.90;;
62151;SDS011;48139;47.474;19.034;2023-02-01T07:03:38;5.20;;;2.63;;
62151;SDS011;48139;47.474;19.034;2023-02-01T07:06:41;5.68;;;1.80;;
62151;SDS011;48139;47.474;19.034;2023-02-01T07:09:44;3.80;;;1.87;;
62151;SDS011;48139;47.474;19.034;2023-02-01T07:12:47;3.97;;;2.13;;
62151;SDS011;48139;47.474;19.034;2023-02-01T07:15:49;2.60;;;1.42;;
62151;SDS011;48139;47.474;19.034;2023-02-01T07:18:52;6.45;;;1.67;;
62151;SDS011;48139;47.474;19.034;2023-02-01T07:21:55;2.97;;;1.60;;
62151;SDS011;48139;47.474;19.034;2023-02-01T07:24:57;7.60;;;2.10;;
62151;SDS011;48139;47.474;19.034;2023-02-01T07:28:00;5.18;;;2.80;;
62151;SDS011;48139;47.474;19.034;2023-02-01T07:31:03;5.27;;;1.80;;
62151;SDS011;48139;47.474;19.034;2023-02-01T07:34:07;7.47;;;2.83;;
62151;SDS011;48139;47.474;19.034;2023-02-01T07:37:10;4.30;;;2.03;;
62151;SDS011;48139;47.474;19.034;2023-02-01T07:40:12;4.17;;;1.67;;
62151;SDS011;48139;47.474;19.034;2023-02-01T07:43:15;3.65;;;1.17;;
62151;SDS011;48139;47.474;19.034;2023-02-01T07:46:18;6.40;;;1.90;;
62151;SDS011;48139;47.474;19.034;2023-02-01T07:49:20;2.03;;;1.40;;
62151;SDS011;48139;47.474;19.034;2023-02-01T07:52:24;5.12;;;2.45;;
62151;SDS011;48139;47.474;19.034;2023-02-01T07:55:26;4.23;;;1.77;;
62151;SDS011;48139;47.474;19.034;2023-02-01T07:58:29;5.33;;;2.50;;
62151;SDS011;48139;47.474;19.034;2023-02-01T08:01:32;5.90;;;2.20;;
62151;SDS011;48139;47.474;19.034;2023-02-01T08:04:35;5.22;;;3.15;;
62151;SDS011;48139;47.474;19.034;2023-02-01T08:07:37;4.93;;;1.70;;
62151;SDS011;48139;47.474;19.034;2023-02-01T08:10:40;3.35;;;1.73;;
62151;SDS011;48139;47.474;19.034;2023-02-01T08:13:43;3.42;;;2.03;;
62151;SDS011;48139;47.474;19.034;2023-02-01T08:16:46;4.93;;;2.17;;
62151;SDS011;48139;47.474;19.034;2023-02-01T08:19:48;6.10;;;1.77;;
62151;SDS011;48139;47.474;19.034;2023-02-01T08:22:51;2.90;;;1.50;;
62151;SDS011;48139;47.474;19.034;2023-02-01T08:26:03;3.85;;;1.80;;
62151;SDS011;48139;47.474;19.034;2023-02-01T08:29:09;4.62;;;1.70;;
62151;SDS011;48139;47.474;19.034;2023-02-01T08:32:14;3.70;;;1.87;;
62151;SDS011;48139;47.474;19.034;2023-02-01T08:35:17;4.70;;;2.35;;
62151;SDS011;48139;47.474;19.034;2023-02-01T08:38:19;3.20;;;2.00;;
62151;SDS011;48139;47.474;19.034;2023-02-01T08:41:23;4.77;;;2.50;;
62151;SDS011;48139;47.474;19.034;2023-02-01T08:44:27;6.68;;;2.60;;
62151;SDS011;48139;47.474;19.034;2023-02-01T08:47:29;5.40;;;2.42;;
62151;SDS011;48139;47.474;19.034;2023-02-01T08:50:32;4.28;;;2.15;;
62151;SDS011;48139;47.474;19.034;2023-02-01T08:53:36;5.13;;;3.03;;
62151;SDS011;48139;47.474;19.034;2023-02-01T08:56:39;7.35;;;2.70;;
62151;SDS011;48139;47.474;19.034;2023-02-01T08:59:42;7.20;;;2.33;;
62151;SDS011;48139;47.474;19.034;2023-02-01T09:02:46;5.90;;;2.50;;
62151;SDS011;48139;47.474;19.034;2023-02-01T09:05:49;4.70;;;2.77;;
62151;SDS011;48139;47.474;19.034;2023-02-01T09:08:52;5.43;;;1.98;;
62151;SDS011;48139;47.474;19.034;2023-02-01T09:11:55;5.90;;;2.30;;
62151;SDS011;48139;47.474;19.034;2023-02-01T09:14:58;4.03;;;2.87;;
62151;SDS011;48139;47.474;19.034;2023-02-01T09:18:02;7.45;;;2.30;;
62151;SDS011;48139;47.474;19.034;2023-02-01T09:21:05;6.73;;;2.67;;
62151;SDS011;48139;47.474;19.034;2023-02-01T09:24:12;5.78;;;2.65;;
62151;SDS011;48139;47.474;19.034;2023-02-01T09:27:15;4.25;;;2.28;;
62151;SDS011;48139;47.474;19.034;2023-02-01T09:30:18;5.85;;;2.37;;
62151;SDS011;48139;47.474;19.034;2023-02-01T09:33:21;7.73;;;2.77;;
62151;SDS011;48139;47.474;19.034;2023-02-01T09:36:26;5.50;;;2.50;;
62151;SDS011;48139;47.474;19.034;2023-02-01T09:39:32;4.55;;;2.20;;
62151;SDS011;48139;47.474;19.034;2023-02-01T09:49:35;4.55;;;2.45;;
62151;SDS011;48139;47.474;19.034;2023-02-01T09:52:45;5.30;;;2.90;;
62151;SDS011;48139;47.474;19.034;2023-02-01T10:02:32;6.50;;;2.17;;
62151;SDS011;48139;47.474;19.034;2023-02-01T10:12:20;6.07;;;2.70;;
62151;SDS011;48139;47.474;19.034;2023-02-01T10:15:44;4.75;;;2.78;;
62151;SDS011;48139;47.474;19.034;2023-02-01T10:18:55;7.70;;;3.92;;
62151;SDS011;48139;47.474;19.034;2023-02-01T10:22:10;8.25;;;2.83;;
62151;SDS011;48139;47.474;19.034;2023-02-01T10:25:23;5.53;;;2.83;;
62151;SDS011;48139;47.474;19.034;2023-02-01T10:28:30;6.28;;;2.70;;
62151;SDS011;48139;47.474;19.034;2023-02-01T10:31:38;7.60;;;4.68;;
62151;SDS011;48139;47.474;19.034;2023-02-01T10:34:41;6.67;;;3.13;;
62151;SDS011;48139;47.474;19.034;2023-02-01T10:37:46;6.97;;;3.72;;
62151;SDS011;48139;47.474;19.034;2023-02-01T10:40:49;5.87;;;2.58;;
62151;SDS011;48139;47.474;19.034;2023-02-01T10:43:54;5.10;;;2.97;;
62151;SDS011;48139;47.474;19.034;2023-02-01T10:47:00;8.05;;;3.53;;
62151;SDS011;48139;47.474;19.034;2023-02-01T10:50:08;16.30;;;5.40;;
62151;SDS011;48139;47.474;19.034;2023-02-01T10:53:24;5.82;;;3.60;;
62151;SDS011;48139;47.474;19.034;2023-02-01T10:56:34;4.95;;;2.80;;
62151;SDS011;48139;47.474;19.034;2023-02-01T10:59:40;7.45;;;3.37;;
62151;SDS011;48139;47.474;19.034;2023-02-01T11:02:42;6.65;;;3.17;;
62151;SDS011;48139;47.474;19.034;2023-02-01T11:05:47;9.98;;;4.57;;
62151;SDS011;48139;47.474;19.034;2023-02-01T11:08:51;5.93;;;3.20;;
62151;SDS011;48139;47.474;19.034;2023-02-01T11:11:58;7.53;;;3.37;;
62151;SDS011;48139;47.474;19.034;2023-02-01T11:18:18;6.90;;;3.58;;
62151;SDS011;48139;47.474;19.034;2023-02-01T11:21:22;10.00;;;3.47;;
62151;SDS011;48139;47.474;19.034;2023-02-01T11:24:31;8.32;;;3.95;;
62151;SDS011;48139;47.474;19.034;2023-02-01T11:27:35;6.10;;;3.47;;
62151;SDS011;48139;47.474;19.034;2023-02-01T11:30:51;6.60;;;3.03;;
62151;SDS011;48139;47.474;19.034;2023-02-01T11:34:17;9.35;;;4.55;;
62151;SDS011;48139;47.474;19.034;2023-02-01T11:40:43;7.57;;;3.90;;
62151;SDS011;48139;47.474;19.034;2023-02-01T12:01:30;5.93;;;3.30;;
62151;SDS011;48139;47.474;19.034;2023-02-01T12:18:11;7.32;;;3.28;;
62151;SDS011;48139;47.474;19.034;2023-02-01T12:24:45;7.68;;;3.92;;
62151;SDS011;48139;47.474;19.034;2023-02-01T12:34:39;7.43;;;3.92;;
62151;SDS011;48139;47.474;19.034;2023-02-01T12:38:28;6.03;;;3.55;;
62151;SDS011;48139;47.474;19.034;2023-02-01T12:51:28;7.68;;;2.67;;
62151;SDS011;48139;47.474;19.034;2023-02-01T12:54:53;5.85;;;2.95;;
62151;SDS011;48139;47.474;19.034;2023-02-01T13:04:58;5.78;;;2.45;;
62151;SDS011;48139;47.474;19.034;2023-02-01T13:08:13;3.65;;;1.73;;
62151;SDS011;48139;47.474;19.034;2023-02-01T13:11:24;4.50;;;2.70;;
62151;SDS011;48139;47.474;19.034;2023-02-01T13:17:42;8.40;;;3.33;;
62151;SDS011;48139;47.474;19.034;2023-02-01T13:21:08;5.62;;;2.58;;
62151;SDS011;48139;47.474;19.034;2023-02-01T13:24:21;6.57;;;3.37;;
62151;SDS011;48139;47.474;19.034;2023-02-01T13:27:30;6.07;;;3.08;;
62151;SDS011;48139;47.474;19.034;2023-02-01T13:30:52;7.47;;;3.62;;
62151;SDS011;48139;47.474;19.034;2023-02-01T13:43:55;9.25;;;3.58;;
62151;SDS011;48139;47.474;19.034;2023-02-01T13:47:02;8.25;;;3.35;;
62151;SDS011;48139;47.474;19.034;2023-02-01T13:53:32;8.25;;;4.32;;
62151;SDS011;48139;47.474;19.034;2023-02-01T13:56:42;8.25;;;3.70;;
62151;SDS011;48139;47.474;19.034;2023-02-01T14:03:11;5.32;;;2.92;;
62151;SDS011;48139;47.474;19.034;2023-02-01T14:09:33;8.60;;;4.10;;
62151;SDS011;48139;47.474;19.034;2023-02-01T14:12:43;5.75;;;2.95;;
62151;SDS011;48139;47.474;19.034;2023-02-01T14:19:07;6.70;;;3.15;;
62151;SDS011;48139;47.474;19.034;2023-02-01T14:25:23;6.47;;;2.95;;
62151;SDS011;48139;47.474;19.034;2023-02-01T14:28:28;7.05;;;3.08;;
62151;SDS011;48139;47.474;19.034;2023-02-01T14:31:34;6.70;;;3.28;;
62151;SDS011;48139;47.474;19.034;2023-02-01T14:37:58;7.18;;;3.83;;
62151;SDS011;48139;47.474;19.034;2023-02-01T14:44:44;7.90;;;3.22;;
62151;SDS011;48139;47.474;19.034;2023-02-01T14:51:13;8.50;;;3.10;;
62151;SDS011;48139;47.474;19.034;2023-02-01T14:54:17;4.55;;;1.92;;
62151;SDS011;48139;47.474;19.034;2023-02-01T15:00:28;5.37;;;2.35;;
62151;SDS011;48139;47.474;19.034;2023-02-01T15:06:58;3.97;;;1.33;;
62151;SDS011;48139;47.474;19.034;2023-02-01T15:10:09;4.50;;;1.85;;
62151;SDS011;48139;47.474;19.034;2023-02-01T15:13:23;2.67;;;1.58;;
62151;SDS011;48139;47.474;19.034;2023-02-01T15:16:27;4.60;;;1.50;;
62151;SDS011;48139;47.474;19.034;2023-02-01T15:19:30;3.72;;;1.42;;
62151;SDS011;48139;47.474;19.034;2023-02-01T15:22:33;3.33;;;1.25;;
62151;SDS011;48139;47.474;19.034;2023-02-01T15:25:37;1.70;;;0.93;;
62151;SDS011;48139;47.474;19.034;2023-02-01T15:28:41;3.95;;;1.12;;
62151;SDS011;48139;47.474;19.034;2023-02-01T15:31:45;2.10;;;1.05;;
62151;SDS011;48139;47.474;19.034;2023-02-01T15:34:49;3.08;;;1.50;;
62151;SDS011;48139;47.474;19.034;2023-02-01T15:37:52;3.00;;;1.48;;
62151;SDS011;48139;47.474;19.034;2023-02-01T15:44:50;3.22;;;1.55;;
62151;SDS011;48139;47.474;19.034;2023-02-01T15:47:51;4.68;;;1.70;;
62151;SDS011;48139;47.474;19.034;2023-02-01T15:50:56;3.42;;;1.55;;
62151;SDS011;48139;47.474;19.034;2023-02-01T15:54:04;5.25;;;2.80;;
62151;SDS011;48139;47.474;19.034;2023-02-01T15:57:10;4.62;;;1.70;;
62151;SDS011;48139;47.474;19.034;2023-02-01T16:00:27;4.57;;;1.87;;
62151;SDS011;48139;47.474;19.034;2023-02-01T16:03:36;3.58;;;1.60;;
62151;SDS011;48139;47.474;19.034;2023-02-01T16:09:58;3.92;;;1.48;;
62151;SDS011;48139;47.474;19.034;2023-02-01T16:13:08;4.05;;;1.30;;
62151;SDS011;48139;47.474;19.034;2023-02-01T16:16:12;3.70;;;1.30;;
62151;SDS011;48139;47.474;19.034;2023-02-01T16:19:16;3.22;;;1.30;;
62151;SDS011;48139;47.474;19.034;2023-02-01T16:22:19;1.77;;;0.93;;
62151;SDS011;48139;47.474;19.034;2023-02-01T16:25:21;2.30;;;1.55;;
62151;SDS011;48139;47.474;19.034;2023-02-01T16:28:25;3.45;;;1.30;;
62151;SDS011;48139;47.474;19.034;2023-02-01T16:31:29;4.35;;;1.23;;
62151;SDS011;48139;47.474;19.034;2023-02-01T16:34:33;2.35;;;1.17;;
62151;SDS011;48139;47.474;19.034;2023-02-01T16:37:37;7.22;;;2.35;;
62151;SDS011;48139;47.474;19.034;2023-02-01T16:40:41;1.85;;;1.17;;
62151;SDS011;48139;47.474;19.034;2023-02-01T16:43:45;4.68;;;1.60;;
62151;SDS011;48139;47.474;19.034;2023-02-01T16:46:53;4.15;;;1.60;;
62151;SDS011;48139;47.474;19.034;2023-02-01T16:49:55;4.40;;;1.75;;
62151;SDS011;48139;47.474;19.034;2023-02-01T16:52:58;4.87;;;2.15;;
62151;SDS011;48139;47.474;19.034;2023-02-01T16:56:01;4.60;;;2.07;;
